createdAt,value
2024-03-10T00:02:00.052Z,96539.80
2024-03-10T00:04:30.078Z,96533.96
2024-03-10T00:06:59.913Z,96534.95
2024-03-10T00:09:29.027Z,96531.64
2024-03-10T00:11:57.439Z,96532.61
2024-03-10T00:14:25.824Z,96532.62
2024-03-10T00:16:54.037Z,96528.45
2024-03-10T00:19:22.504Z,96524.92
2024-03-10T00:21:50.692Z,96524.20
2024-03-10T00:24:21.328Z,96525.02
2024-03-10T00:26:50.915Z,96528.15
2024-03-10T00:29:19.116Z,96527.02
2024-03-10T00:31:47.317Z,96528.30
2024-03-10T00:34:15.668Z,96528.66
2024-03-10T00:36:43.765Z,96531.69
2024-03-10T00:39:11.961Z,96532.54
2024-03-10T00:41:41.074Z,96529.60
2024-03-10T00:44:09.290Z,96530.27
2024-03-10T00:46:37.546Z,96521.24
2024-03-10T00:49:05.805Z,96518.08
2024-03-10T00:51:36.340Z,96510.94
2024-03-10T00:54:05.002Z,96511.41
2024-03-10T00:56:33.197Z,96506.06
2024-03-10T00:59:01.397Z,96507.09
2024-03-10T01:01:30.299Z,96506.11
2024-03-10T01:03:58.408Z,96508.25
2024-03-10T01:06:26.812Z,96507.59
2024-03-10T01:08:54.912Z,96506.41
2024-03-10T01:11:23.079Z,96507.71
2024-03-10T01:13:51.915Z,96504.31
2024-03-10T01:16:20.068Z,96505.16
2024-03-10T01:18:48.493Z,96505.69
2024-03-10T01:21:16.575Z,96504.95
2024-03-10T01:23:44.605Z,96506.05
2024-03-10T01:26:12.821Z,96502.90
2024-03-10T01:28:41.104Z,96499.14
2024-03-10T01:31:10.855Z,96498.55
2024-03-10T01:33:39.128Z,96496.52
2024-03-10T01:36:08.102Z,96495.54
2024-03-10T01:38:36.197Z,96492.81
2024-03-10T01:41:04.560Z,96487.91
2024-03-10T01:43:32.795Z,96486.20
2024-03-10T01:46:08.976Z,96485.03
2024-03-10T01:48:41.683Z,96484.44
2024-03-10T01:51:10.285Z,96484.77
2024-03-10T01:53:38.595Z,96481.48
2024-03-10T01:56:08.396Z,96481.83
2024-03-10T01:58:36.751Z,96479.63
2024-03-10T02:01:05.038Z,96478.84
2024-03-10T02:03:33.541Z,96474.55
2024-03-10T02:06:01.727Z,96474.65
2024-03-10T02:08:29.973Z,96468.52
2024-03-10T02:10:58.240Z,96471.50
2024-03-10T02:13:26.582Z,96469.42
2024-03-10T02:16:04.842Z,96472.26
2024-03-10T02:18:35.668Z,96478.61
2024-03-10T02:21:04.119Z,96478.00
2024-03-10T02:23:36.310Z,96477.20
2024-03-10T02:26:05.082Z,96481.37
2024-03-10T02:28:36.939Z,96477.27
2024-03-10T02:31:25.049Z,96478.23
2024-03-10T02:34:11.802Z,96478.61
2024-03-10T02:36:58.913Z,96479.19
2024-03-10T02:39:45.549Z,96478.52
2024-03-10T02:42:32.187Z,96473.38
2024-03-10T02:45:18.967Z,96475.09
2024-03-10T02:47:47.422Z,96470.42
2024-03-10T02:50:15.621Z,96470.61
2024-03-10T02:52:43.690Z,96473.80
2024-03-10T02:55:13.072Z,96471.23
2024-03-10T02:57:41.275Z,96478.32
2024-03-10T03:00:14.023Z,96477.83
2024-03-10T03:02:42.062Z,96477.52
2024-03-10T03:05:10.345Z,96475.45
2024-03-10T03:07:38.487Z,96472.94
2024-03-10T03:10:07.394Z,96474.51
2024-03-10T03:12:37.018Z,96471.14
2024-03-10T03:15:05.916Z,96468.37
2024-03-10T03:17:34.077Z,96469.50
2024-03-10T03:20:02.385Z,96469.27
2024-03-10T03:22:30.693Z,96467.69
2024-03-10T03:24:58.848Z,96465.70
2024-03-10T03:27:26.877Z,96472.94
2024-03-10T03:29:55.993Z,96473.45
2024-03-10T03:32:24.087Z,96478.59
2024-03-10T03:34:52.153Z,96482.02
2024-03-10T03:37:20.241Z,96486.61
2024-03-10T03:39:48.438Z,96486.90
2024-03-10T03:42:16.786Z,96486.79
2024-03-10T03:44:45.576Z,96487.88
2024-03-10T03:47:13.735Z,96493.59
2024-03-10T03:49:41.859Z,96492.64
2024-03-10T03:52:10.026Z,96490.99
2024-03-10T03:54:40.725Z,96489.02
2024-03-10T03:57:08.813Z,96485.48
2024-03-10T03:59:40.309Z,96493.38
2024-03-10T04:02:08.718Z,96497.42
2024-03-10T04:04:36.943Z,96496.83
2024-03-10T04:07:05.384Z,96498.27
2024-03-10T04:09:33.492Z,96500.85
2024-03-10T04:12:01.943Z,96504.82
2024-03-10T04:14:30.148Z,96506.41
2024-03-10T04:16:58.712Z,96502.46
2024-03-10T04:19:26.779Z,96503.17
2024-03-10T04:21:55.712Z,96499.31
2024-03-10T04:24:24.098Z,96497.45
2024-03-10T04:26:52.276Z,96496.30
2024-03-10T04:29:20.928Z,96489.69
2024-03-10T04:31:49.662Z,96488.55
2024-03-10T04:34:17.805Z,96485.64
2024-03-10T04:36:45.914Z,96485.39
2024-03-10T04:39:14.103Z,96483.98
2024-03-10T04:41:42.164Z,96482.92
2024-03-10T04:44:15.973Z,96480.43
2024-03-10T04:46:44.173Z,96484.73
2024-03-10T04:49:13.030Z,96488.11
2024-03-10T04:51:42.285Z,96491.58
2024-03-10T04:54:10.949Z,96491.89
2024-03-10T04:56:39.160Z,96489.30
2024-03-10T04:59:07.539Z,96488.81
2024-03-10T05:01:35.753Z,96483.77
2024-03-10T05:04:03.952Z,96483.54
2024-03-10T05:06:32.022Z,96484.51
2024-03-10T05:09:00.119Z,96479.21
2024-03-10T05:11:28.405Z,96471.51
2024-03-10T05:13:56.897Z,96466.34
2024-03-10T05:16:25.051Z,96462.01
2024-03-10T05:18:55.005Z,96462.77
2024-03-10T05:21:26.239Z,96463.44
2024-03-10T05:23:57.398Z,96470.48
2024-03-10T05:26:25.902Z,96470.90
2024-03-10T05:28:54.139Z,96473.27
2024-03-10T05:31:27.532Z,96471.42
2024-03-10T05:33:58.900Z,96471.52
2024-03-10T05:36:27.971Z,96468.39
2024-03-10T05:38:56.559Z,96467.35
2024-03-10T05:41:24.818Z,96470.06
2024-03-10T05:43:53.122Z,96468.75
2024-03-10T05:46:21.250Z,96468.59
2024-03-10T05:48:49.452Z,96475.06
2024-03-10T05:51:17.640Z,96479.06
2024-03-10T05:53:46.954Z,96485.66
2024-03-10T05:56:15.150Z,96485.92
2024-03-10T05:58:44.188Z,96491.67
2024-03-10T06:01:13.437Z,96495.61
2024-03-10T06:03:41.541Z,96492.55
2024-03-10T06:06:10.011Z,96492.12
2024-03-10T06:08:38.140Z,96488.02
2024-03-10T06:11:06.286Z,96490.20
2024-03-10T06:13:34.607Z,96488.23
2024-03-10T06:16:04.046Z,96482.30
2024-03-10T06:18:54.770Z,96483.51
2024-03-10T06:21:46.401Z,96481.80
2024-03-10T06:24:33.434Z,96480.94
2024-03-10T06:27:02.147Z,96474.92
2024-03-10T06:29:30.573Z,96467.30
2024-03-10T06:32:00.241Z,96466.94
2024-03-10T06:34:28.611Z,96475.92
2024-03-10T06:36:56.814Z,96478.80
2024-03-10T06:39:25.823Z,96471.97
2024-03-10T06:41:53.966Z,96474.23
2024-03-10T06:44:23.273Z,96474.90
2024-03-10T06:46:51.869Z,96473.12
2024-03-10T06:49:20.003Z,96476.88
2024-03-10T06:51:48.655Z,96480.48
2024-03-10T06:54:16.728Z,96486.92
2024-03-10T06:56:44.883Z,96493.94
2024-03-10T06:59:14.323Z,96493.08
2024-03-10T07:01:46.147Z,96484.17
2024-03-10T07:04:17.535Z,96476.41
2024-03-10T07:06:47.453Z,96475.68
2024-03-10T07:09:16.978Z,96479.38
2024-03-10T07:11:45.412Z,96485.69
2024-03-10T07:14:15.680Z,96489.57
2024-03-10T07:16:50.579Z,96492.59
2024-03-10T07:19:18.745Z,96493.92
2024-03-10T07:21:46.833Z,96496.24
2024-03-10T07:24:14.990Z,96498.34
2024-03-10T07:26:43.329Z,96498.64
2024-03-10T07:29:12.342Z,96494.33
2024-03-10T07:31:40.397Z,96492.52
2024-03-10T07:34:08.720Z,96488.50
2024-03-10T07:36:37.208Z,96490.54
2024-03-10T07:39:08.885Z,96490.38
2024-03-10T07:41:37.182Z,96494.20
2024-03-10T07:44:05.540Z,96490.72
2024-03-10T07:46:33.880Z,96485.82
2024-03-10T07:49:03.794Z,96485.90
2024-03-10T07:51:32.449Z,96484.26
2024-03-10T07:54:01.893Z,96484.20
2024-03-10T07:56:32.418Z,96484.17
2024-03-10T07:59:02.134Z,96485.13
2024-03-10T08:01:30.625Z,96482.59
2024-03-10T08:03:58.720Z,96478.23
2024-03-10T08:06:27.170Z,96475.23
2024-03-10T08:08:55.306Z,96469.67
2024-03-10T08:11:24.025Z,96467.80
2024-03-10T08:13:52.485Z,96463.86
2024-03-10T08:16:21.216Z,96464.45
2024-03-10T08:18:51.158Z,96470.02
2024-03-10T08:21:24.170Z,96469.07
2024-03-10T08:23:52.298Z,96470.11
2024-03-10T08:26:20.736Z,96470.95
2024-03-10T08:28:48.809Z,96464.66
2024-03-10T08:31:17.858Z,96461.03
2024-03-10T08:33:46.055Z,96455.55
2024-03-10T08:36:14.191Z,96457.08
2024-03-10T08:38:42.416Z,96459.36
2024-03-10T08:41:10.823Z,96459.34
2024-03-10T08:43:39.088Z,96459.82
2024-03-10T08:46:08.097Z,96458.50
2024-03-10T08:48:37.029Z,96456.88
2024-03-10T08:51:07.279Z,96451.45
2024-03-10T08:53:35.904Z,96451.54
2024-03-10T08:56:06.123Z,96448.92
2024-03-10T08:58:34.667Z,96443.05
2024-03-10T09:01:05.983Z,96447.49
2024-03-10T09:03:34.284Z,96448.05
2024-03-10T09:06:02.505Z,96439.80
2024-03-10T09:08:30.922Z,96438.95
2024-03-10T09:11:04.541Z,96434.95
2024-03-10T09:13:34.699Z,96431.97
2024-03-10T09:16:02.882Z,96430.25
2024-03-10T09:18:31.129Z,96427.23
2024-03-10T09:20:59.385Z,96422.27
2024-03-10T09:23:29.205Z,96422.43
2024-03-10T09:25:59.256Z,96420.80
2024-03-10T09:28:27.502Z,96428.20
2024-03-10T09:30:58.586Z,96430.36
2024-03-10T09:33:27.149Z,96431.91
2024-03-10T09:35:59.334Z,96432.26
2024-03-10T09:38:27.605Z,96432.27
2024-03-10T09:40:57.240Z,96431.83
2024-03-10T09:43:30.521Z,96430.08
2024-03-10T09:45:59.152Z,96425.83
2024-03-10T09:48:27.327Z,96423.21
2024-03-10T09:50:55.626Z,96420.09
2024-03-10T09:53:25.095Z,96419.91
2024-03-10T09:55:54.245Z,96421.88
2024-03-10T09:58:40.322Z,96415.17
2024-03-10T10:01:13.669Z,96414.34
2024-03-10T10:03:46.423Z,96407.64
2024-03-10T10:06:15.141Z,96409.62
2024-03-10T10:08:43.701Z,96413.05
2024-03-10T10:11:14.690Z,96413.00
2024-03-10T10:13:43.839Z,96417.88
2024-03-10T10:16:12.470Z,96419.44
2024-03-10T10:18:51.144Z,96416.40
2024-03-10T10:21:28.317Z,96414.35
2024-03-10T10:23:59.064Z,96411.46
2024-03-10T10:26:27.104Z,96409.85
2024-03-10T10:29:11.098Z,96413.13
2024-03-10T10:31:39.864Z,96412.34
2024-03-10T10:34:08.555Z,96411.88
2024-03-10T10:36:36.908Z,96406.25
2024-03-10T10:39:10.224Z,96397.75
2024-03-10T10:41:39.462Z,96390.25
2024-03-10T10:44:08.565Z,96394.63
2024-03-10T10:46:37.815Z,96397.27
2024-03-10T10:49:06.325Z,96395.44
2024-03-10T10:51:37.407Z,96390.31
2024-03-10T10:54:10.720Z,96391.60
2024-03-10T10:56:39.728Z,96387.13
2024-03-10T10:59:12.035Z,96377.53
2024-03-10T11:01:41.805Z,96378.13
2024-03-10T11:04:13.428Z,96372.16
2024-03-10T11:06:42.477Z,96365.32
2024-03-10T11:09:16.251Z,96360.42
2024-03-10T11:11:46.761Z,96358.30
2024-03-10T11:14:17.517Z,96357.96
2024-03-10T11:16:46.046Z,96357.88
2024-03-10T11:19:22.485Z,96356.82
2024-03-10T11:21:51.634Z,96351.41
2024-03-10T11:24:23.302Z,96347.08
2024-03-10T11:27:13.162Z,96347.71
2024-03-10T11:29:43.077Z,96347.27
2024-03-10T11:32:33.076Z,96341.29
2024-03-10T11:35:08.525Z,96335.64
2024-03-10T11:37:38.137Z,96330.89
2024-03-10T11:40:16.896Z,96330.59
2024-03-10T11:42:46.523Z,96325.86
2024-03-10T11:45:14.812Z,96319.57
2024-03-10T11:47:45.500Z,96315.38
2024-03-10T11:50:13.813Z,96319.93
2024-03-10T11:52:41.883Z,96324.20
2024-03-10T11:55:14.788Z,96321.70
2024-03-10T11:57:42.963Z,96319.10
2024-03-10T12:00:24.682Z,96314.11
2024-03-10T12:02:54.720Z,96312.33
2024-03-10T12:05:24.142Z,96314.19
2024-03-10T12:07:56.083Z,96315.85
2024-03-10T12:10:29.641Z,96315.27
2024-03-10T12:12:59.134Z,96313.13
2024-03-10T12:15:28.020Z,96312.02
2024-03-10T12:17:56.531Z,96309.95
2024-03-10T12:20:25.360Z,96306.70
2024-03-10T12:22:54.440Z,96305.82
2024-03-10T12:25:22.854Z,96304.19
2024-03-10T12:27:51.367Z,96299.17
2024-03-10T12:30:22.191Z,96298.70
2024-03-10T12:32:53.848Z,96295.52
2024-03-10T12:35:24.877Z,96291.59
2024-03-10T12:37:53.603Z,96291.58
2024-03-10T12:40:23.208Z,96292.41
2024-03-10T12:42:52.948Z,96290.75
2024-03-10T12:45:22.200Z,96287.79
2024-03-10T12:47:54.995Z,96293.54
2024-03-10T12:50:23.491Z,96292.69
2024-03-10T12:52:51.877Z,96288.58
2024-03-10T12:55:20.213Z,96294.59
2024-03-10T12:57:48.325Z,96295.16
2024-03-10T13:00:25.367Z,96293.06
2024-03-10T13:02:56.354Z,96289.92
2024-03-10T13:05:25.234Z,96283.73
2024-03-10T13:07:53.317Z,96278.02
2024-03-10T13:10:21.860Z,96271.42
2024-03-10T13:12:50.283Z,96266.86
2024-03-10T13:15:18.710Z,96271.35
2024-03-10T13:17:47.147Z,96278.75
2024-03-10T13:20:18.279Z,96283.45
2024-03-10T13:22:47.104Z,96276.77
2024-03-10T13:25:15.898Z,96270.34
2024-03-10T13:27:44.022Z,96261.58
2024-03-10T13:30:15.886Z,96256.58
2024-03-10T13:32:44.259Z,96254.05
2024-03-10T13:35:15.164Z,96249.10
2024-03-10T13:37:43.440Z,96249.82
2024-03-10T13:40:12.962Z,96243.27
2024-03-10T13:42:42.440Z,96240.80
2024-03-10T13:45:19.652Z,96236.36
2024-03-10T13:47:51.685Z,96230.23
2024-03-10T13:50:25.425Z,96231.17
2024-03-10T13:52:53.675Z,96228.70
2024-03-10T13:55:22.065Z,96227.27
2024-03-10T13:57:52.921Z,96232.30
2024-03-10T14:00:23.111Z,96230.36
2024-03-10T14:02:51.224Z,96236.39
2024-03-10T14:05:20.617Z,96239.63
2024-03-10T14:07:49.152Z,96239.92
2024-03-10T14:10:20.656Z,96238.11
2024-03-10T14:12:48.832Z,96237.95
2024-03-10T14:15:17.258Z,96237.20
2024-03-10T14:17:46.242Z,96244.73
2024-03-10T14:20:16.559Z,96237.20
2024-03-10T14:22:51.845Z,96242.32
2024-03-10T14:25:20.211Z,96238.90
2024-03-10T14:27:52.735Z,96238.85
2024-03-10T14:30:24.077Z,96239.80
2024-03-10T14:32:54.944Z,96238.98
2024-03-10T14:35:25.974Z,96242.92
2024-03-10T14:37:56.292Z,96242.48
2024-03-10T14:40:24.610Z,96244.98
2024-03-10T14:42:55.304Z,96241.18
2024-03-10T14:45:24.677Z,96233.45
2024-03-10T14:47:53.713Z,96225.67
2024-03-10T14:50:26.429Z,96219.00
2024-03-10T14:52:56.597Z,96215.39
2024-03-10T14:55:25.781Z,96214.91
2024-03-10T14:57:54.363Z,96218.38
2024-03-10T15:00:36.185Z,96216.44
2024-03-10T15:03:07.571Z,96217.70
2024-03-10T15:05:37.617Z,96218.76
2024-03-10T15:08:06.939Z,96222.33
2024-03-10T15:10:36.673Z,96221.83
2024-03-10T15:13:10.136Z,96211.17
2024-03-10T15:15:40.132Z,96213.50
2024-03-10T15:18:10.661Z,96217.13
2024-03-10T15:20:44.112Z,96210.39
2024-03-10T15:23:13.275Z,96208.41
2024-03-10T15:25:42.234Z,96216.23
2024-03-10T15:28:11.237Z,96214.08
2024-03-10T15:30:42.546Z,96211.98
2024-03-10T15:33:12.165Z,96214.98
2024-03-10T15:35:43.120Z,96217.27
2024-03-10T15:38:11.783Z,96213.95
2024-03-10T15:40:40.131Z,96212.04
2024-03-10T15:43:10.770Z,96210.67
2024-03-10T15:45:43.927Z,96210.96
2024-03-10T15:48:13.779Z,96208.04
2024-03-10T15:50:44.012Z,96206.98
2024-03-10T15:53:12.750Z,96208.81
2024-03-10T15:55:41.244Z,96211.46
2024-03-10T15:58:11.389Z,96213.98
2024-03-10T16:00:39.945Z,96217.41
2024-03-10T16:03:17.376Z,96219.55
2024-03-10T16:05:56.683Z,96221.73
2024-03-10T16:08:26.712Z,96218.96
2024-03-10T16:10:55.016Z,96217.45
2024-03-10T16:13:26.711Z,96218.16
2024-03-10T16:15:55.641Z,96219.92
2024-03-10T16:18:24.568Z,96226.80
2024-03-10T16:20:52.985Z,96225.23
2024-03-10T16:23:22.926Z,96225.42
2024-03-10T16:25:51.200Z,96227.77
2024-03-10T16:28:19.489Z,96224.40
2024-03-10T16:30:47.623Z,96226.63
2024-03-10T16:33:15.839Z,96226.16
2024-03-10T16:35:44.075Z,96224.82
2024-03-10T16:38:12.287Z,96226.08
2024-03-10T16:40:40.479Z,96228.54
2024-03-10T16:43:08.693Z,96234.83
2024-03-10T16:45:36.902Z,96237.33
2024-03-10T16:48:05.448Z,96242.11
2024-03-10T16:50:34.788Z,96238.86
2024-03-10T16:53:07.543Z,96241.20
2024-03-10T16:55:41.502Z,96246.06
2024-03-10T16:58:10.631Z,96245.33
2024-03-10T17:00:39.661Z,96246.52
2024-03-10T17:03:12.895Z,96248.67
2024-03-10T17:05:41.291Z,96248.95
2024-03-10T17:08:12.675Z,96249.90
2024-03-10T17:10:41.112Z,96246.58
2024-03-10T17:13:09.896Z,96250.73
2024-03-10T17:15:43.466Z,96250.72
2024-03-10T17:18:14.210Z,96251.64
2024-03-10T17:20:42.741Z,96249.33
2024-03-10T17:23:13.868Z,96250.48
2024-03-10T17:25:42.261Z,96252.95
2024-03-10T17:28:10.607Z,96256.02
2024-03-10T17:30:38.879Z,96257.70
2024-03-10T17:33:07.142Z,96253.99
2024-03-10T17:35:35.697Z,96252.55
2024-03-10T17:38:05.515Z,96249.80
2024-03-10T17:40:34.046Z,96249.83
2024-03-10T17:43:02.220Z,96250.02
2024-03-10T17:45:30.392Z,96249.20
2024-03-10T17:48:00.585Z,96245.83
2024-03-10T17:50:31.005Z,96251.18
2024-03-10T17:52:59.220Z,96256.47
2024-03-10T17:55:27.507Z,96258.09
2024-03-10T17:57:55.668Z,96255.31
2024-03-10T18:00:24.172Z,96255.42
2024-03-10T18:02:52.617Z,96260.98
2024-03-10T18:05:21.495Z,96257.92
2024-03-10T18:07:52.906Z,96254.14
2024-03-10T18:10:22.935Z,96248.42
2024-03-10T18:12:52.470Z,96246.37
2024-03-10T18:15:21.920Z,96246.17
2024-03-10T18:17:50.530Z,96248.66
2024-03-10T18:20:21.269Z,96245.77
2024-03-10T18:22:49.836Z,96247.20
2024-03-10T18:25:18.174Z,96248.38
2024-03-10T18:27:46.537Z,96249.23
2024-03-10T18:30:15.801Z,96248.09
2024-03-10T18:32:44.360Z,96256.73
2024-03-10T18:35:14.267Z,96255.77
2024-03-10T18:37:43.481Z,96256.86
2024-03-10T18:40:12.257Z,96253.64
2024-03-10T18:42:41.759Z,96252.45
2024-03-10T18:45:10.700Z,96255.73
2024-03-10T18:47:38.997Z,96252.49
2024-03-10T18:50:11.640Z,96258.52
2024-03-10T18:52:43.684Z,96262.91
2024-03-10T18:55:14.657Z,96262.27
2024-03-10T18:57:42.976Z,96264.67
2024-03-10T19:00:13.352Z,96264.45
2024-03-10T19:02:42.809Z,96260.95
2024-03-10T19:05:12.631Z,96265.80
2024-03-10T19:07:42.342Z,96261.95
2024-03-10T19:10:11.390Z,96258.21
2024-03-10T19:12:46.326Z,96256.90
2024-03-10T19:15:15.469Z,96261.21
2024-03-10T19:17:44.647Z,96258.20
2024-03-10T19:20:19.374Z,96256.66
2024-03-10T19:22:55.990Z,96255.24
2024-03-10T19:25:25.004Z,96255.27
2024-03-10T19:27:53.366Z,96260.38
2024-03-10T19:30:21.670Z,96261.15
2024-03-10T19:32:50.878Z,96260.23
2024-03-10T19:35:20.653Z,96259.52
2024-03-10T19:37:49.487Z,96258.99
2024-03-10T19:40:20.662Z,96260.13
2024-03-10T19:42:50.027Z,96254.56
2024-03-10T19:45:20.956Z,96258.38
2024-03-10T19:47:49.486Z,96255.25
2024-03-10T19:50:17.981Z,96256.69
2024-03-10T19:52:49.393Z,96264.91
2024-03-10T19:55:17.609Z,96266.45
2024-03-10T19:57:45.908Z,96265.39
2024-03-10T20:00:15.940Z,96264.34
2024-03-10T20:02:45.444Z,96259.68
2024-03-10T20:05:16.931Z,96257.73
2024-03-10T20:07:49.605Z,96262.40
2024-03-10T20:10:21.142Z,96264.48
2024-03-10T20:12:53.011Z,96265.23
2024-03-10T20:15:21.269Z,96267.91
2024-03-10T20:17:50.919Z,96259.02
2024-03-10T20:20:26.590Z,96262.96
2024-03-10T20:23:01.898Z,96257.72
2024-03-10T20:25:32.089Z,96260.12
2024-03-10T20:28:00.802Z,96255.63
2024-03-10T20:30:32.255Z,96260.54
2024-03-10T20:33:00.608Z,96264.21
2024-03-10T20:35:29.002Z,96262.10
2024-03-10T20:37:57.139Z,96261.43
2024-03-10T20:40:25.306Z,96257.73
2024-03-10T20:42:53.361Z,96260.43
2024-03-10T20:45:21.575Z,96259.65
2024-03-10T20:47:50.593Z,96253.66
2024-03-10T20:50:24.520Z,96252.95
2024-03-10T20:52:53.982Z,96256.73
2024-03-10T20:55:22.751Z,96254.33
2024-03-10T20:57:51.119Z,96258.14
2024-03-10T21:00:23.782Z,96255.88
2024-03-10T21:02:52.733Z,96258.96
2024-03-10T21:05:22.795Z,96259.27
2024-03-10T21:07:53.408Z,96257.33
2024-03-10T21:10:23.450Z,96256.18
2024-03-10T21:12:52.517Z,96259.54
2024-03-10T21:15:23.808Z,96260.86
2024-03-10T21:17:53.535Z,96264.31
2024-03-10T21:20:24.184Z,96265.10
2024-03-10T21:22:53.418Z,96258.77
2024-03-10T21:25:24.251Z,96251.02
2024-03-10T21:27:52.394Z,96248.86
2024-03-10T21:30:20.600Z,96242.82
2024-03-10T21:32:49.026Z,96249.08
2024-03-10T21:35:19.335Z,96254.30
2024-03-10T21:37:48.883Z,96251.56
2024-03-10T21:40:17.757Z,96248.19
2024-03-10T21:42:46.000Z,96247.28
2024-03-10T21:45:14.352Z,96244.17
2024-03-10T21:47:42.952Z,96240.59
2024-03-10T21:50:11.897Z,96237.38
2024-03-10T21:52:40.410Z,96239.40
2024-03-10T21:55:08.931Z,96240.37
2024-03-10T21:57:37.121Z,96232.55
2024-03-10T22:00:15.708Z,96221.48
2024-03-10T22:02:45.005Z,96217.79
2024-03-10T22:05:13.655Z,96212.23
2024-03-10T22:07:43.031Z,96210.48
2024-03-10T22:10:11.394Z,96209.35
2024-03-10T22:12:39.575Z,96211.42
2024-03-10T22:15:15.608Z,96212.12
2024-03-10T22:17:45.011Z,96207.38
2024-03-10T22:20:15.426Z,96207.67
2024-03-10T22:22:44.562Z,96207.64
2024-03-10T22:25:15.296Z,96214.45
2024-03-10T22:27:44.717Z,96215.22
2024-03-10T22:30:16.397Z,96215.79
2024-03-10T22:32:48.549Z,96208.48
2024-03-10T22:35:17.185Z,96212.71
2024-03-10T22:37:49.488Z,96213.23
2024-03-10T22:40:20.242Z,96213.71
2024-03-10T22:42:50.674Z,96214.96
2024-03-10T22:45:29.180Z,96217.93
2024-03-10T22:48:00.900Z,96217.07
2024-03-10T22:50:30.170Z,96217.15
2024-03-10T22:53:01.774Z,96220.71
2024-03-10T22:55:30.493Z,96220.07
2024-03-10T22:57:58.772Z,96222.46
2024-03-10T23:00:26.977Z,96222.66
2024-03-10T23:02:56.906Z,96216.08
2024-03-10T23:05:26.999Z,96215.50
2024-03-10T23:08:05.610Z,96214.85
2024-03-10T23:10:36.077Z,96207.52
2024-03-10T23:13:05.381Z,96206.16
2024-03-10T23:15:34.446Z,96206.55
2024-03-10T23:18:02.822Z,96210.81
2024-03-10T23:20:31.735Z,96213.33
2024-03-10T23:23:01.385Z,96215.58
2024-03-10T23:25:31.565Z,96218.02
2024-03-10T23:27:59.980Z,96218.88
2024-03-10T23:30:28.283Z,96217.39
2024-03-10T23:32:57.147Z,96215.55
2024-03-10T23:35:26.933Z,96215.50
2024-03-10T23:37:55.239Z,96214.15
2024-03-10T23:40:26.331Z,96209.56
2024-03-10T23:42:56.699Z,96213.73
2024-03-10T23:45:24.995Z,96209.16
2024-03-10T23:47:53.808Z,96208.50
2024-03-10T23:50:22.334Z,96212.37
2024-03-10T23:52:53.920Z,96209.54
2024-03-10T23:55:23.684Z,96210.09
2024-03-10T23:57:54.211Z,96211.07
